Vreme - Novo mesto - 190m - DAVIS Vantage Pro2
Weather data: current sreda, 14.11.2018 10:20
Date Time Temp. O. Hum. O. Baro. Rain Wind Direction Direction Wind gust
14.11.2018 10:20 11,3 C 90 % 1032,1 hPa 0,0 mm 0,0 km/h E-NE 65 1,6 km/h
14.11.2018 09:20 10,7 C 94 % 1032,1 hPa 0,0 mm 4,8 km/h NE 45 8,0 km/h
14.11.2018 08:20 10,4 C 94 % 1031,9 hPa 0,0 mm 1,6 km/h E-NE 65 3,2 km/h
14.11.2018 07:20 10,3 C 95 % 1031,4 hPa 0,0 mm 0,0 km/h N 360 3,2 km/h
14.11.2018 06:20 10,2 C 95 % 1031,3 hPa 0,0 mm 0,0 km/h E-NE 65 1,6 km/h
14.11.2018 05:20 9,7 C 96 % 1030,6 hPa 0,0 mm 1,6 km/h E-NE 65 3,2 km/h
14.11.2018 04:20 9,6 C 96 % 1030,3 hPa 0,0 mm 0,0 km/h S-SW 200 3,2 km/h
14.11.2018 03:20 9,1 C 96 % 1030,4 hPa 0,0 mm 1,6 km/h SW 225 4,8 km/h
14.11.2018 02:20 8,5 C 96 % 1030,2 hPa 0,0 mm 1,6 km/h N 360 6,4 km/h
14.11.2018 01:20 7,9 C 95 % 1029,6 hPa 0,0 mm 1,6 km/h SW 225 4,8 km/h
14.11.2018 00:20 8,6 C 94 % 1029,4 hPa 0,0 mm 0,0 km/h N 0 0,0 km/h
13.11.2018 23:20 9,2 C 93 % 1029,1 hPa 0,0 mm 0,0 km/h NW 315 3,2 km/h
13.11.2018 22:20 9,9 C 93 % 1028,5 hPa 0,0 mm 0,0 km/h W-NW 290 4,8 km/h
13.11.2018 21:20 10,3 C 92 % 1028,3 hPa 0,0 mm 0,0 km/h W 270 1,6 km/h
13.11.2018 20:20 10,7 C 90 % 1027,6 hPa 0,0 mm 0,0 km/h W 270 3,2 km/h
13.11.2018 19:20 11,7 C 87 % 1027,2 hPa 0,0 mm 0,0 km/h W-NW 290 1,6 km/h
13.11.2018 18:20 13,3 C 81 % 1026,9 hPa 0,0 mm 0,0 km/h W-NW 290 3,2 km/h
13.11.2018 17:20 15,3 C 74 % 1026,3 hPa 0,0 mm 3,2 km/h S-SW 200 8,0 km/h
13.11.2018 16:20 16,2 C 71 % 1025,7 hPa 0,0 mm 6,4 km/h SW 225 14,5 km/h
13.11.2018 15:20 17,0 C 69 % 1025,3 hPa 0,0 mm 9,7 km/h W 270 19,3 km/h
13.11.2018 14:20 17,9 C 68 % 1025,1 hPa 0,0 mm 11,3 km/h W 270 22,5 km/h
13.11.2018 13:20 18,3 C 65 % 1024,8 hPa 0,0 mm 11,3 km/h W 270 27,4 km/h
13.11.2018 12:20 18,4 C 64 % 1024,4 hPa 0,3 mm 14,5 km/h W 270 33,8 km/h
13.11.2018 11:20 18,7 C 65 % 1024,5 hPa 0,0 mm 12,9 km/h W 270 25,7 km/h
13.11.2018 11:00 17,5 C 70 % 1024,6 hPa 0,0 mm 8,0 km/h SW 225 17,7 km/h
_ Min-Time 01:30 11:40 12:20 - 18:00 - - 19:50
Minimum _ 7,8 C 64 % 1024,4 hPa - 0,0 km/h - - 0,0 km/h
_ Max-Time 11:20 01:50 09:10 12:20 11:50 - - 12:20
Maximum _ 18,7 C 96 % 1032,2 hPa 0,3 mm 17,7 km/h
W
- - 33,8 km/h
W
Average _ 12,2 C 86 % 1028,4 hPa #0,3 mm 3,4 km/h W - 8,7 km/h